sensor_id;sensor_type;location;lat;lon;timestamp;P1;durP1;ratioP1;P2;durP2;ratioP2
34892;SDS011;21106;52.240;20.902;2023-08-12T00:02:17;10.10;;;3.00;;
34892;SDS011;21106;52.240;20.902;2023-08-12T00:07:23;9.00;;;3.70;;
34892;SDS011;21106;52.240;20.902;2023-08-12T00:12:31;9.80;;;3.30;;
34892;SDS011;21106;52.240;20.902;2023-08-12T00:17:38;6.90;;;3.10;;
34892;SDS011;21106;52.240;20.902;2023-08-12T00:22:46;6.90;;;3.90;;
34892;SDS011;21106;52.240;20.902;2023-08-12T00:27:53;7.10;;;3.70;;
34892;SDS011;21106;52.240;20.902;2023-08-12T00:32:59;7.90;;;3.20;;
34892;SDS011;21106;52.240;20.902;2023-08-12T00:38:06;8.70;;;3.60;;
34892;SDS011;21106;52.240;20.902;2023-08-12T00:43:12;5.80;;;3.40;;
34892;SDS011;21106;52.240;20.902;2023-08-12T00:48:19;9.70;;;3.80;;
34892;SDS011;21106;52.240;20.902;2023-08-12T00:53:25;10.20;;;3.70;;
34892;SDS011;21106;52.240;20.902;2023-08-12T00:58:31;10.30;;;3.50;;
34892;SDS011;21106;52.240;20.902;2023-08-12T01:03:38;10.70;;;4.00;;
34892;SDS011;21106;52.240;20.902;2023-08-12T01:08:46;8.40;;;3.90;;
34892;SDS011;21106;52.240;20.902;2023-08-12T01:14:03;9.80;;;4.00;;
34892;SDS011;21106;52.240;20.902;2023-08-12T01:19:33;7.70;;;4.10;;
34892;SDS011;21106;52.240;20.902;2023-08-12T01:24:43;11.00;;;4.60;;
34892;SDS011;21106;52.240;20.902;2023-08-12T01:29:51;11.50;;;4.30;;
34892;SDS011;21106;52.240;20.902;2023-08-12T01:40:23;11.10;;;3.90;;
34892;SDS011;21106;52.240;20.902;2023-08-12T01:45:31;8.70;;;4.50;;
34892;SDS011;21106;52.240;20.902;2023-08-12T01:50:41;8.00;;;4.00;;
34892;SDS011;21106;52.240;20.902;2023-08-12T01:55:52;8.60;;;4.60;;
34892;SDS011;21106;52.240;20.902;2023-08-12T02:00:59;10.90;;;5.00;;
34892;SDS011;21106;52.240;20.902;2023-08-12T02:06:05;11.00;;;5.40;;
34892;SDS011;21106;52.240;20.902;2023-08-12T02:11:11;13.20;;;6.10;;
34892;SDS011;21106;52.240;20.902;2023-08-12T02:16:18;12.80;;;5.80;;
34892;SDS011;21106;52.240;20.902;2023-08-12T02:21:27;12.60;;;6.00;;
34892;SDS011;21106;52.240;20.902;2023-08-12T02:26:33;15.40;;;5.60;;
34892;SDS011;21106;52.240;20.902;2023-08-12T02:31:40;15.40;;;6.10;;
34892;SDS011;21106;52.240;20.902;2023-08-12T02:36:47;11.10;;;5.50;;
34892;SDS011;21106;52.240;20.902;2023-08-12T02:41:54;12.30;;;5.30;;
34892;SDS011;21106;52.240;20.902;2023-08-12T02:47:01;14.10;;;5.80;;
34892;SDS011;21106;52.240;20.902;2023-08-12T02:52:09;9.10;;;4.80;;
34892;SDS011;21106;52.240;20.902;2023-08-12T02:57:16;13.30;;;5.10;;
34892;SDS011;21106;52.240;20.902;2023-08-12T03:02:24;11.80;;;5.30;;
34892;SDS011;21106;52.240;20.902;2023-08-12T03:07:30;9.60;;;5.00;;
34892;SDS011;21106;52.240;20.902;2023-08-12T03:12:39;21.40;;;6.10;;
34892;SDS011;21106;52.240;20.902;2023-08-12T03:17:46;10.40;;;4.90;;
34892;SDS011;21106;52.240;20.902;2023-08-12T03:22:54;11.50;;;4.90;;
34892;SDS011;21106;52.240;20.902;2023-08-12T03:28:02;9.00;;;4.30;;
34892;SDS011;21106;52.240;20.902;2023-08-12T03:33:09;11.00;;;5.30;;
34892;SDS011;21106;52.240;20.902;2023-08-12T03:38:17;11.10;;;4.90;;
34892;SDS011;21106;52.240;20.902;2023-08-12T03:43:25;12.90;;;5.70;;
34892;SDS011;21106;52.240;20.902;2023-08-12T03:48:32;11.10;;;4.10;;
34892;SDS011;21106;52.240;20.902;2023-08-12T03:53:38;7.50;;;3.40;;
34892;SDS011;21106;52.240;20.902;2023-08-12T03:58:46;10.00;;;3.90;;
34892;SDS011;21106;52.240;20.902;2023-08-12T04:03:54;8.50;;;4.40;;
34892;SDS011;21106;52.240;20.902;2023-08-12T04:09:01;12.00;;;4.30;;
34892;SDS011;21106;52.240;20.902;2023-08-12T04:14:09;10.30;;;4.70;;
34892;SDS011;21106;52.240;20.902;2023-08-12T04:19:16;11.70;;;4.80;;
34892;SDS011;21106;52.240;20.902;2023-08-12T04:24:24;9.90;;;4.30;;
34892;SDS011;21106;52.240;20.902;2023-08-12T04:29:32;10.20;;;4.40;;
34892;SDS011;21106;52.240;20.902;2023-08-12T04:34:40;17.30;;;3.90;;
34892;SDS011;21106;52.240;20.902;2023-08-12T04:39:48;10.70;;;4.90;;
34892;SDS011;21106;52.240;20.902;2023-08-12T04:44:55;8.60;;;4.10;;
34892;SDS011;21106;52.240;20.902;2023-08-12T04:50:01;11.00;;;5.20;;
34892;SDS011;21106;52.240;20.902;2023-08-12T04:55:09;11.70;;;4.70;;
34892;SDS011;21106;52.240;20.902;2023-08-12T05:00:17;16.70;;;5.50;;
34892;SDS011;21106;52.240;20.902;2023-08-12T05:05:25;13.70;;;5.20;;
34892;SDS011;21106;52.240;20.902;2023-08-12T05:10:33;12.40;;;4.10;;
34892;SDS011;21106;52.240;20.902;2023-08-12T05:15:39;10.40;;;4.90;;
34892;SDS011;21106;52.240;20.902;2023-08-12T05:20:46;11.30;;;3.70;;
34892;SDS011;21106;52.240;20.902;2023-08-12T05:25:52;8.00;;;3.40;;
34892;SDS011;21106;52.240;20.902;2023-08-12T05:30:58;13.00;;;3.70;;
34892;SDS011;21106;52.240;20.902;2023-08-12T05:36:06;12.30;;;3.70;;
34892;SDS011;21106;52.240;20.902;2023-08-12T05:41:13;10.60;;;3.20;;
34892;SDS011;21106;52.240;20.902;2023-08-12T05:46:20;10.70;;;3.50;;
34892;SDS011;21106;52.240;20.902;2023-08-12T05:51:30;9.70;;;3.90;;
34892;SDS011;21106;52.240;20.902;2023-08-12T05:56:38;9.70;;;3.60;;
34892;SDS011;21106;52.240;20.902;2023-08-12T06:01:46;7.60;;;3.30;;
34892;SDS011;21106;52.240;20.902;2023-08-12T06:06:52;9.70;;;3.20;;
34892;SDS011;21106;52.240;20.902;2023-08-12T06:12:00;9.50;;;3.50;;
34892;SDS011;21106;52.240;20.902;2023-08-12T06:17:08;11.60;;;3.90;;
34892;SDS011;21106;52.240;20.902;2023-08-12T06:22:15;11.80;;;3.60;;
34892;SDS011;21106;52.240;20.902;2023-08-12T06:27:21;9.90;;;3.40;;
34892;SDS011;21106;52.240;20.902;2023-08-12T06:32:28;6.80;;;2.90;;
34892;SDS011;21106;52.240;20.902;2023-08-12T06:37:34;8.40;;;3.10;;
34892;SDS011;21106;52.240;20.902;2023-08-12T06:42:40;11.90;;;3.00;;
34892;SDS011;21106;52.240;20.902;2023-08-12T06:47:47;11.50;;;3.20;;
34892;SDS011;21106;52.240;20.902;2023-08-12T06:52:53;10.50;;;3.20;;
34892;SDS011;21106;52.240;20.902;2023-08-12T06:58:00;8.80;;;2.60;;
34892;SDS011;21106;52.240;20.902;2023-08-12T07:03:08;13.30;;;3.70;;
34892;SDS011;21106;52.240;20.902;2023-08-12T07:08:15;7.90;;;2.70;;
34892;SDS011;21106;52.240;20.902;2023-08-12T07:13:21;4.10;;;1.70;;
34892;SDS011;21106;52.240;20.902;2023-08-12T07:18:28;6.10;;;1.70;;
34892;SDS011;21106;52.240;20.902;2023-08-12T07:23:36;6.20;;;2.10;;
34892;SDS011;21106;52.240;20.902;2023-08-12T07:28:43;5.60;;;1.50;;
34892;SDS011;21106;52.240;20.902;2023-08-12T07:33:51;9.00;;;2.20;;
34892;SDS011;21106;52.240;20.902;2023-08-12T07:38:57;10.60;;;2.30;;
34892;SDS011;21106;52.240;20.902;2023-08-12T07:44:04;9.00;;;2.50;;
34892;SDS011;21106;52.240;20.902;2023-08-12T07:49:11;10.30;;;1.70;;
34892;SDS011;21106;52.240;20.902;2023-08-12T07:54:17;9.40;;;1.90;;
34892;SDS011;21106;52.240;20.902;2023-08-12T07:59:24;11.30;;;2.10;;
34892;SDS011;21106;52.240;20.902;2023-08-12T08:04:31;4.30;;;1.40;;
34892;SDS011;21106;52.240;20.902;2023-08-12T08:09:37;8.80;;;1.90;;
34892;SDS011;21106;52.240;20.902;2023-08-12T08:14:44;6.30;;;1.50;;
34892;SDS011;21106;52.240;20.902;2023-08-12T08:19:50;5.70;;;1.70;;
34892;SDS011;21106;52.240;20.902;2023-08-12T08:24:57;11.70;;;1.80;;
34892;SDS011;21106;52.240;20.902;2023-08-12T08:30:03;7.40;;;1.90;;
34892;SDS011;21106;52.240;20.902;2023-08-12T08:35:10;3.30;;;1.60;;
34892;SDS011;21106;52.240;20.902;2023-08-12T08:40:16;4.40;;;1.40;;
34892;SDS011;21106;52.240;20.902;2023-08-12T08:45:23;5.60;;;1.40;;
34892;SDS011;21106;52.240;20.902;2023-08-12T08:50:31;6.90;;;1.90;;
34892;SDS011;21106;52.240;20.902;2023-08-12T08:55:37;6.20;;;1.40;;
34892;SDS011;21106;52.240;20.902;2023-08-12T09:00:43;6.10;;;1.20;;
34892;SDS011;21106;52.240;20.902;2023-08-12T09:05:51;8.00;;;1.90;;
34892;SDS011;21106;52.240;20.902;2023-08-12T09:11:01;6.50;;;1.50;;
34892;SDS011;21106;52.240;20.902;2023-08-12T09:16:08;8.70;;;1.60;;
34892;SDS011;21106;52.240;20.902;2023-08-12T09:21:15;4.30;;;1.70;;
34892;SDS011;21106;52.240;20.902;2023-08-12T09:26:21;8.30;;;1.50;;
34892;SDS011;21106;52.240;20.902;2023-08-12T09:31:28;8.10;;;1.50;;
34892;SDS011;21106;52.240;20.902;2023-08-12T09:36:35;6.20;;;1.90;;
34892;SDS011;21106;52.240;20.902;2023-08-12T09:41:42;4.60;;;1.60;;
34892;SDS011;21106;52.240;20.902;2023-08-12T09:46:49;3.70;;;1.30;;
34892;SDS011;21106;52.240;20.902;2023-08-12T09:52:03;3.60;;;1.40;;
34892;SDS011;21106;52.240;20.902;2023-08-12T09:57:10;6.30;;;2.20;;
34892;SDS011;21106;52.240;20.902;2023-08-12T10:02:19;4.10;;;1.60;;
34892;SDS011;21106;52.240;20.902;2023-08-12T10:07:26;6.80;;;1.40;;
34892;SDS011;21106;52.240;20.902;2023-08-12T10:12:33;3.30;;;2.10;;
34892;SDS011;21106;52.240;20.902;2023-08-12T10:17:40;4.20;;;1.60;;
34892;SDS011;21106;52.240;20.902;2023-08-12T10:22:47;6.30;;;2.00;;
34892;SDS011;21106;52.240;20.902;2023-08-12T10:27:54;4.50;;;1.30;;
34892;SDS011;21106;52.240;20.902;2023-08-12T10:33:01;4.10;;;1.50;;
34892;SDS011;21106;52.240;20.902;2023-08-12T10:38:07;5.30;;;1.60;;
34892;SDS011;21106;52.240;20.902;2023-08-12T10:43:14;3.70;;;1.70;;
34892;SDS011;21106;52.240;20.902;2023-08-12T10:53:33;4.90;;;1.50;;
34892;SDS011;21106;52.240;20.902;2023-08-12T10:58:44;6.40;;;1.50;;
34892;SDS011;21106;52.240;20.902;2023-08-12T11:03:52;4.80;;;1.90;;
34892;SDS011;21106;52.240;20.902;2023-08-12T11:08:59;5.50;;;2.00;;
34892;SDS011;21106;52.240;20.902;2023-08-12T11:14:11;4.00;;;1.60;;
34892;SDS011;21106;52.240;20.902;2023-08-12T11:19:20;6.90;;;1.60;;
34892;SDS011;21106;52.240;20.902;2023-08-12T11:24:27;4.00;;;1.40;;
34892;SDS011;21106;52.240;20.902;2023-08-12T11:29:37;4.20;;;1.30;;
34892;SDS011;21106;52.240;20.902;2023-08-12T11:34:44;12.80;;;1.80;;
34892;SDS011;21106;52.240;20.902;2023-08-12T11:39:54;3.40;;;1.30;;
34892;SDS011;21106;52.240;20.902;2023-08-12T11:45:00;5.90;;;1.30;;
34892;SDS011;21106;52.240;20.902;2023-08-12T11:50:07;5.10;;;1.60;;
34892;SDS011;21106;52.240;20.902;2023-08-12T11:55:15;4.60;;;1.40;;
34892;SDS011;21106;52.240;20.902;2023-08-12T12:00:22;5.80;;;1.40;;
34892;SDS011;21106;52.240;20.902;2023-08-12T12:05:31;5.60;;;1.10;;
34892;SDS011;21106;52.240;20.902;2023-08-12T12:10:37;5.20;;;1.20;;
34892;SDS011;21106;52.240;20.902;2023-08-12T12:15:44;6.70;;;2.30;;
34892;SDS011;21106;52.240;20.902;2023-08-12T12:20:54;7.10;;;2.30;;
34892;SDS011;21106;52.240;20.902;2023-08-12T12:26:01;4.10;;;1.70;;
34892;SDS011;21106;52.240;20.902;2023-08-12T12:31:08;4.90;;;1.90;;
34892;SDS011;21106;52.240;20.902;2023-08-12T12:36:15;7.30;;;1.70;;
34892;SDS011;21106;52.240;20.902;2023-08-12T12:41:21;6.10;;;1.50;;
34892;SDS011;21106;52.240;20.902;2023-08-12T12:46:28;6.50;;;2.00;;
34892;SDS011;21106;52.240;20.902;2023-08-12T12:51:35;2.50;;;1.60;;
34892;SDS011;21106;52.240;20.902;2023-08-12T12:56:41;3.40;;;1.30;;
34892;SDS011;21106;52.240;20.902;2023-08-12T13:01:48;2.40;;;1.30;;
34892;SDS011;21106;52.240;20.902;2023-08-12T13:06:54;6.20;;;1.60;;
34892;SDS011;21106;52.240;20.902;2023-08-12T13:12:01;3.80;;;1.60;;
34892;SDS011;21106;52.240;20.902;2023-08-12T13:17:07;11.50;;;1.70;;
34892;SDS011;21106;52.240;20.902;2023-08-12T13:22:13;3.70;;;1.40;;
34892;SDS011;21106;52.240;20.902;2023-08-12T13:27:20;5.70;;;1.20;;
34892;SDS011;21106;52.240;20.902;2023-08-12T13:32:26;6.30;;;1.30;;
34892;SDS011;21106;52.240;20.902;2023-08-12T13:37:32;5.80;;;1.40;;
34892;SDS011;21106;52.240;20.902;2023-08-12T13:42:39;3.70;;;1.40;;
34892;SDS011;21106;52.240;20.902;2023-08-12T13:47:45;3.80;;;1.70;;
34892;SDS011;21106;52.240;20.902;2023-08-12T13:52:52;8.80;;;1.50;;
34892;SDS011;21106;52.240;20.902;2023-08-12T13:57:58;5.50;;;1.40;;
34892;SDS011;21106;52.240;20.902;2023-08-12T14:03:04;5.70;;;1.60;;
34892;SDS011;21106;52.240;20.902;2023-08-12T14:08:11;7.20;;;1.20;;
34892;SDS011;21106;52.240;20.902;2023-08-12T14:13:17;6.30;;;1.70;;
34892;SDS011;21106;52.240;20.902;2023-08-12T14:18:25;4.70;;;1.30;;
34892;SDS011;21106;52.240;20.902;2023-08-12T14:23:31;4.80;;;1.40;;
34892;SDS011;21106;52.240;20.902;2023-08-12T14:28:38;6.00;;;1.40;;
34892;SDS011;21106;52.240;20.902;2023-08-12T14:33:44;2.90;;;1.30;;
34892;SDS011;21106;52.240;20.902;2023-08-12T14:38:50;7.30;;;1.20;;
34892;SDS011;21106;52.240;20.902;2023-08-12T14:43:57;5.70;;;1.50;;
34892;SDS011;21106;52.240;20.902;2023-08-12T14:49:03;2.70;;;1.30;;
34892;SDS011;21106;52.240;20.902;2023-08-12T14:54:10;5.60;;;1.30;;
34892;SDS011;21106;52.240;20.902;2023-08-12T14:59:17;6.90;;;1.30;;
34892;SDS011;21106;52.240;20.902;2023-08-12T15:04:23;5.10;;;1.20;;
34892;SDS011;21106;52.240;20.902;2023-08-12T15:09:30;3.60;;;1.30;;
34892;SDS011;21106;52.240;20.902;2023-08-12T15:14:37;7.20;;;1.50;;
34892;SDS011;21106;52.240;20.902;2023-08-12T15:19:44;3.00;;;1.10;;
34892;SDS011;21106;52.240;20.902;2023-08-12T15:24:52;2.60;;;1.40;;
34892;SDS011;21106;52.240;20.902;2023-08-12T15:29:58;2.40;;;1.40;;
34892;SDS011;21106;52.240;20.902;2023-08-12T15:35:06;5.90;;;1.20;;
34892;SDS011;21106;52.240;20.902;2023-08-12T15:40:12;4.20;;;1.40;;
34892;SDS011;21106;52.240;20.902;2023-08-12T15:45:19;4.40;;;1.30;;
34892;SDS011;21106;52.240;20.902;2023-08-12T15:50:25;3.50;;;1.10;;
34892;SDS011;21106;52.240;20.902;2023-08-12T15:55:32;2.20;;;1.20;;
34892;SDS011;21106;52.240;20.902;2023-08-12T16:00:39;3.70;;;1.40;;
34892;SDS011;21106;52.240;20.902;2023-08-12T16:05:48;5.10;;;1.10;;
34892;SDS011;21106;52.240;20.902;2023-08-12T16:10:55;3.80;;;1.30;;
34892;SDS011;21106;52.240;20.902;2023-08-12T16:16:01;4.60;;;1.00;;
34892;SDS011;21106;52.240;20.902;2023-08-12T16:21:08;2.30;;;0.90;;
34892;SDS011;21106;52.240;20.902;2023-08-12T16:26:14;4.50;;;1.10;;
34892;SDS011;21106;52.240;20.902;2023-08-12T16:31:21;5.90;;;1.60;;
34892;SDS011;21106;52.240;20.902;2023-08-12T16:36:27;4.40;;;1.10;;
34892;SDS011;21106;52.240;20.902;2023-08-12T16:41:34;3.60;;;1.20;;
34892;SDS011;21106;52.240;20.902;2023-08-12T16:46:40;6.20;;;1.30;;
34892;SDS011;21106;52.240;20.902;2023-08-12T16:51:47;3.90;;;1.20;;
34892;SDS011;21106;52.240;20.902;2023-08-12T16:56:53;6.00;;;1.30;;
34892;SDS011;21106;52.240;20.902;2023-08-12T17:02:00;4.10;;;1.60;;
34892;SDS011;21106;52.240;20.902;2023-08-12T17:07:06;3.10;;;1.10;;
34892;SDS011;21106;52.240;20.902;2023-08-12T17:12:13;4.40;;;1.30;;
34892;SDS011;21106;52.240;20.902;2023-08-12T17:17:19;4.50;;;1.90;;
34892;SDS011;21106;52.240;20.902;2023-08-12T17:22:26;4.50;;;1.40;;
34892;SDS011;21106;52.240;20.902;2023-08-12T17:27:33;5.40;;;1.80;;
34892;SDS011;21106;52.240;20.902;2023-08-12T17:32:39;13.70;;;1.70;;
34892;SDS011;21106;52.240;20.902;2023-08-12T17:37:46;8.90;;;1.80;;
34892;SDS011;21106;52.240;20.902;2023-08-12T17:42:52;25.80;;;2.10;;
34892;SDS011;21106;52.240;20.902;2023-08-12T17:47:59;13.30;;;5.10;;
34892;SDS011;21106;52.240;20.902;2023-08-12T17:53:08;5.80;;;2.60;;
34892;SDS011;21106;52.240;20.902;2023-08-12T17:58:15;7.80;;;2.10;;
34892;SDS011;21106;52.240;20.902;2023-08-12T18:03:21;8.00;;;2.10;;
34892;SDS011;21106;52.240;20.902;2023-08-12T18:08:27;5.80;;;2.50;;
34892;SDS011;21106;52.240;20.902;2023-08-12T18:13:34;16.50;;;3.20;;
34892;SDS011;21106;52.240;20.902;2023-08-12T18:18:40;7.70;;;3.50;;
34892;SDS011;21106;52.240;20.902;2023-08-12T18:23:47;10.40;;;2.90;;
34892;SDS011;21106;52.240;20.902;2023-08-12T18:28:53;5.20;;;3.00;;
34892;SDS011;21106;52.240;20.902;2023-08-12T18:33:59;9.40;;;4.40;;
34892;SDS011;21106;52.240;20.902;2023-08-12T18:39:06;10.90;;;3.80;;
34892;SDS011;21106;52.240;20.902;2023-08-12T18:44:12;6.80;;;3.80;;
34892;SDS011;21106;52.240;20.902;2023-08-12T18:49:19;8.30;;;3.20;;
34892;SDS011;21106;52.240;20.902;2023-08-12T18:54:25;6.40;;;3.20;;
34892;SDS011;21106;52.240;20.902;2023-08-12T18:59:32;12.10;;;3.30;;
34892;SDS011;21106;52.240;20.902;2023-08-12T19:04:38;10.70;;;2.90;;
34892;SDS011;21106;52.240;20.902;2023-08-12T19:09:44;7.80;;;2.80;;
34892;SDS011;21106;52.240;20.902;2023-08-12T19:14:51;5.80;;;2.60;;
34892;SDS011;21106;52.240;20.902;2023-08-12T19:19:57;5.50;;;2.70;;
34892;SDS011;21106;52.240;20.902;2023-08-12T19:25:04;4.70;;;2.80;;
34892;SDS011;21106;52.240;20.902;2023-08-12T19:30:11;3.40;;;1.90;;
34892;SDS011;21106;52.240;20.902;2023-08-12T19:35:18;4.90;;;2.30;;
34892;SDS011;21106;52.240;20.902;2023-08-12T19:46:55;8.80;;;3.10;;
34892;SDS011;21106;52.240;20.902;2023-08-12T19:52:01;10.50;;;2.80;;
34892;SDS011;21106;52.240;20.902;2023-08-12T19:58:10;6.70;;;3.10;;
34892;SDS011;21106;52.240;20.902;2023-08-12T20:04:31;7.80;;;3.90;;
34892;SDS011;21106;52.240;20.902;2023-08-12T20:09:57;7.60;;;3.80;;
34892;SDS011;21106;52.240;20.902;2023-08-12T20:15:54;12.20;;;3.30;;
34892;SDS011;21106;52.240;20.902;2023-08-12T20:32:36;7.40;;;3.60;;
34892;SDS011;21106;52.240;20.902;2023-08-12T20:37:44;9.40;;;3.90;;
34892;SDS011;21106;52.240;20.902;2023-08-12T20:48:18;10.70;;;3.60;;
34892;SDS011;21106;52.240;20.902;2023-08-12T20:53:25;11.00;;;3.80;;
34892;SDS011;21106;52.240;20.902;2023-08-12T20:58:40;9.60;;;3.50;;
34892;SDS011;21106;52.240;20.902;2023-08-12T21:04:03;7.00;;;2.80;;
34892;SDS011;21106;52.240;20.902;2023-08-12T21:09:10;5.80;;;2.70;;
34892;SDS011;21106;52.240;20.902;2023-08-12T21:14:16;10.40;;;3.80;;
34892;SDS011;21106;52.240;20.902;2023-08-12T21:19:23;5.80;;;2.80;;
34892;SDS011;21106;52.240;20.902;2023-08-12T21:24:30;8.60;;;3.70;;
34892;SDS011;21106;52.240;20.902;2023-08-12T21:29:37;7.00;;;2.70;;
34892;SDS011;21106;52.240;20.902;2023-08-12T21:36:24;8.50;;;2.90;;
34892;SDS011;21106;52.240;20.902;2023-08-12T21:43:12;7.30;;;3.40;;
34892;SDS011;21106;52.240;20.902;2023-08-12T21:49:58;9.00;;;2.60;;
34892;SDS011;21106;52.240;20.902;2023-08-12T21:56:43;12.50;;;3.40;;
34892;SDS011;21106;52.240;20.902;2023-08-12T22:01:50;12.30;;;3.10;;
34892;SDS011;21106;52.240;20.902;2023-08-12T22:08:38;9.90;;;3.30;;
34892;SDS011;21106;52.240;20.902;2023-08-12T22:15:26;6.60;;;3.20;;
34892;SDS011;21106;52.240;20.902;2023-08-12T22:20:32;9.20;;;3.10;;
34892;SDS011;21106;52.240;20.902;2023-08-12T22:27:21;9.60;;;3.40;;
34892;SDS011;21106;52.240;20.902;2023-08-12T22:34:11;5.90;;;3.40;;
34892;SDS011;21106;52.240;20.902;2023-08-12T22:39:17;19.20;;;3.60;;
34892;SDS011;21106;52.240;20.902;2023-08-12T22:44:24;6.80;;;3.40;;
34892;SDS011;21106;52.240;20.902;2023-08-12T22:49:50;9.50;;;3.00;;
34892;SDS011;21106;52.240;20.902;2023-08-12T22:54:56;9.40;;;3.30;;
34892;SDS011;21106;52.240;20.902;2023-08-12T23:01:43;9.70;;;3.40;;
34892;SDS011;21106;52.240;20.902;2023-08-12T23:07:50;7.30;;;3.10;;
34892;SDS011;21106;52.240;20.902;2023-08-12T23:14:37;6.90;;;3.20;;
34892;SDS011;21106;52.240;20.902;2023-08-12T23:20:23;9.90;;;3.20;;
34892;SDS011;21106;52.240;20.902;2023-08-12T23:25:57;8.50;;;3.60;;
34892;SDS011;21106;52.240;20.902;2023-08-12T23:31:47;6.40;;;2.30;;
34892;SDS011;21106;52.240;20.902;2023-08-12T23:37:58;8.50;;;3.40;;
34892;SDS011;21106;52.240;20.902;2023-08-12T23:43:53;6.20;;;3.00;;
34892;SDS011;21106;52.240;20.902;2023-08-12T23:50:39;11.20;;;3.00;;
34892;SDS011;21106;52.240;20.902;2023-08-12T23:55:53;4.90;;;2.70;;
